createdAt,value
2018-12-29T00:00:25.621Z,0
2018-12-29T00:01:35.570Z,0
2018-12-29T00:02:45.508Z,0
2018-12-29T00:03:55.194Z,0
2018-12-29T00:05:05.139Z,0
2018-12-29T00:06:14.821Z,0
2018-12-29T00:07:24.511Z,0
2018-12-29T00:08:34.466Z,0
2018-12-29T00:09:44.422Z,0
2018-12-29T00:10:54.370Z,0
2018-12-29T00:12:04.308Z,0
2018-12-29T00:13:14.271Z,0
2018-12-29T00:14:23.964Z,0
2018-12-29T00:15:33.406Z,0
2018-12-29T00:16:43.101Z,0
2018-12-29T00:17:52.798Z,0
2018-12-29T00:19:02.497Z,0
2018-12-29T00:20:11.943Z,0
2018-12-29T00:21:21.886Z,0
2018-12-29T00:22:31.564Z,0
2018-12-29T00:23:41.502Z,0
2018-12-29T00:24:51.443Z,0
2018-12-29T00:26:01.148Z,0
2018-12-29T00:27:11.095Z,0
2018-12-29T00:28:20.779Z,0
2018-12-29T00:29:30.465Z,0
2018-12-29T00:30:40.425Z,0
2018-12-29T00:31:50.361Z,0
2018-12-29T00:33:00.308Z,0
2018-12-29T00:34:09.994Z,0
2018-12-29T00:35:19.930Z,0
2018-12-29T00:36:29.898Z,0
2018-12-29T00:37:39.595Z,0
2018-12-29T00:38:49.287Z,0
2018-12-29T00:39:58.975Z,0
2018-12-29T00:41:08.920Z,0
2018-12-29T00:42:18.871Z,0
2018-12-29T00:43:28.815Z,0
2018-12-29T00:44:38.765Z,0
2018-12-29T00:45:48.462Z,0
2018-12-29T00:46:58.409Z,0
2018-12-29T00:48:08.099Z,0
2018-12-29T00:49:18.031Z,0
2018-12-29T00:50:27.969Z,0
2018-12-29T00:51:37.669Z,0
2018-12-29T00:52:47.358Z,0
2018-12-29T00:53:57.311Z,0
2018-12-29T00:55:07.379Z,0
2018-12-29T00:56:17.312Z,0
2018-12-29T00:57:27.004Z,0
2018-12-29T00:58:36.942Z,0
2018-12-29T00:59:46.622Z,0
2018-12-29T01:00:56.315Z,0
2018-12-29T01:02:06.247Z,0
2018-12-29T01:03:15.931Z,0
2018-12-29T01:04:25.855Z,0
2018-12-29T01:05:35.792Z,0
2018-12-29T01:06:45.729Z,0
2018-12-29T01:07:55.675Z,0
2018-12-29T01:09:05.626Z,0
2018-12-29T01:10:15.064Z,0
2018-12-29T01:11:25.074Z,0
2018-12-29T01:12:34.768Z,0
2018-12-29T01:13:44.706Z,0
2018-12-29T01:14:54.385Z,0
2018-12-29T01:16:04.080Z,0
2018-12-29T01:17:14.014Z,0
2018-12-29T01:18:23.950Z,0
2018-12-29T01:19:33.885Z,0
2018-12-29T01:20:43.814Z,0
2018-12-29T01:21:53.759Z,0
2018-12-29T01:23:03.700Z,0
2018-12-29T01:24:13.641Z,0
2018-12-29T01:25:23.101Z,0
2018-12-29T01:26:33.030Z,0
2018-12-29T01:27:42.728Z,0
2018-12-29T01:28:52.420Z,0
2018-12-29T01:30:02.100Z,0
2018-12-29T01:31:11.792Z,0
2018-12-29T01:32:21.724Z,0
2018-12-29T01:33:31.414Z,0
2018-12-29T01:34:41.352Z,0
2018-12-29T01:35:51.055Z,0
2018-12-29T01:37:01.006Z,0
2018-12-29T01:38:10.688Z,0
2018-12-29T01:39:20.387Z,0
2018-12-29T01:40:30.082Z,0
2018-12-29T01:41:40.009Z,0
2018-12-29T01:42:49.713Z,0
2018-12-29T01:43:59.419Z,0
2018-12-29T01:45:09.350Z,0
2018-12-29T01:46:19.040Z,0
2018-12-29T01:47:28.730Z,0
2018-12-29T01:48:38.675Z,0
2018-12-29T01:49:48.364Z,0
2018-12-29T01:50:58.308Z,0
2018-12-29T01:52:07.979Z,0
2018-12-29T01:53:17.922Z,0
2018-12-29T01:54:27.356Z,0
2018-12-29T01:55:37.298Z,0
2018-12-29T01:56:46.999Z,0
2018-12-29T01:57:56.694Z,0
2018-12-29T01:59:06.638Z,0
2018-12-29T02:00:16.602Z,0
2018-12-29T02:01:26.285Z,0
2018-12-29T02:02:36.233Z,0
2018-12-29T02:03:46.162Z,0
2018-12-29T02:04:55.846Z,0
2018-12-29T02:06:05.832Z,0
2018-12-29T02:07:15.774Z,0
2018-12-29T02:08:25.476Z,0
2018-12-29T02:09:34.921Z,0
2018-12-29T02:10:44.878Z,0
2018-12-29T02:11:54.582Z,0
2018-12-29T02:13:04.544Z,0
2018-12-29T02:14:14.484Z,0
2018-12-29T02:15:31.504Z,0
2018-12-29T02:16:41.182Z,0
2018-12-29T02:17:50.696Z,0
2018-12-29T02:19:00.375Z,0
2018-12-29T02:20:10.317Z,0
2018-12-29T02:21:20.242Z,0
2018-12-29T02:22:30.185Z,0
2018-12-29T02:23:39.882Z,0
2018-12-29T02:24:49.564Z,0
2018-12-29T02:25:59.251Z,0
2018-12-29T02:27:09.193Z,0
2018-12-29T02:28:18.883Z,0
2018-12-29T02:29:28.900Z,0
2018-12-29T02:30:38.856Z,0
2018-12-29T02:31:48.844Z,0
2018-12-29T02:32:58.796Z,0
2018-12-29T02:34:08.743Z,0
2018-12-29T02:35:18.456Z,0
2018-12-29T02:36:28.406Z,0
2018-12-29T02:37:38.105Z,0
2018-12-29T02:38:48.051Z,0
2018-12-29T02:39:57.998Z,0
2018-12-29T02:41:07.972Z,0
2018-12-29T02:42:17.907Z,0
2018-12-29T02:43:27.603Z,0
2018-12-29T02:44:37.300Z,0
2018-12-29T02:45:47.253Z,0
2018-12-29T02:46:57.209Z,0
2018-12-29T02:48:06.922Z,0
2018-12-29T02:49:16.620Z,0
2018-12-29T02:50:26.307Z,0
2018-12-29T02:51:36.259Z,0
2018-12-29T02:52:46.211Z,0
2018-12-29T02:53:55.916Z,0
2018-12-29T02:55:05.616Z,0
2018-12-29T02:56:15.554Z,0
2018-12-29T02:57:25.258Z,0
2018-12-29T02:58:34.948Z,0
2018-12-29T02:59:44.893Z,0
2018-12-29T03:00:54.854Z,0
2018-12-29T03:02:04.559Z,0
2018-12-29T03:03:14.498Z,0
2018-12-29T03:04:24.178Z,0
2018-12-29T03:05:34.106Z,0
2018-12-29T03:06:43.793Z,0
2018-12-29T03:07:53.750Z,0
2018-12-29T03:09:03.441Z,0
2018-12-29T03:10:13.139Z,0
2018-12-29T03:11:22.857Z,0
2018-12-29T03:12:32.566Z,0
2018-12-29T03:13:42.274Z,0
2018-12-29T03:14:52.260Z,0
2018-12-29T03:16:02.211Z,0
2018-12-29T03:17:11.678Z,0
2018-12-29T03:18:21.613Z,0
2018-12-29T03:19:31.601Z,0
2018-12-29T03:20:41.549Z,0
2018-12-29T03:21:51.241Z,0
2018-12-29T03:23:01.190Z,0
2018-12-29T03:24:11.136Z,0
2018-12-29T03:25:21.090Z,0
2018-12-29T03:26:30.785Z,0
2018-12-29T03:27:40.474Z,0
2018-12-29T03:28:50.417Z,0
2018-12-29T03:30:00.365Z,0
2018-12-29T03:31:10.386Z,0
2018-12-29T03:32:20.114Z,0
2018-12-29T03:33:29.811Z,0
2018-12-29T03:34:39.518Z,0
2018-12-29T03:35:49.473Z,0
2018-12-29T03:36:58.916Z,0
2018-12-29T03:38:08.855Z,0
2018-12-29T03:39:18.784Z,0
2018-12-29T03:40:28.722Z,0
2018-12-29T03:41:38.261Z,0
2018-12-29T03:42:48.200Z,0
2018-12-29T03:43:58.147Z,0
2018-12-29T03:45:07.855Z,0
2018-12-29T03:46:17.799Z,0
2018-12-29T03:47:27.740Z,0
2018-12-29T03:48:37.670Z,0
2018-12-29T03:49:47.606Z,0
2018-12-29T03:50:57.292Z,0
2018-12-29T03:52:07.250Z,0
2018-12-29T03:53:17.203Z,0
2018-12-29T03:54:27.136Z,0
2018-12-29T03:55:37.058Z,0
2018-12-29T03:56:46.761Z,0
2018-12-29T03:57:56.703Z,0
2018-12-29T03:59:06.645Z,0
2018-12-29T04:00:16.605Z,0
2018-12-29T04:01:26.546Z,0
2018-12-29T04:02:36.240Z,0
2018-12-29T04:03:45.689Z,0
2018-12-29T04:04:55.622Z,0
2018-12-29T04:06:05.647Z,0
2018-12-29T04:07:15.607Z,0
2018-12-29T04:08:25.561Z,0
2018-12-29T04:09:35.521Z,0
2018-12-29T04:10:45.458Z,0
2018-12-29T04:11:55.147Z,0
2018-12-29T04:13:05.089Z,0
2018-12-29T04:14:14.773Z,0
2018-12-29T04:15:24.702Z,0
2018-12-29T04:16:34.652Z,0
2018-12-29T04:17:44.604Z,0
2018-12-29T04:18:54.054Z,0
2018-12-29T04:20:03.810Z,0
2018-12-29T04:21:13.545Z,0
2018-12-29T04:22:22.995Z,0
2018-12-29T04:23:32.939Z,0
2018-12-29T04:24:42.878Z,0
2018-12-29T04:25:52.831Z,0
2018-12-29T04:27:02.510Z,0
2018-12-29T04:28:12.441Z,0
2018-12-29T04:29:22.114Z,0
2018-12-29T04:30:31.556Z,0
2018-12-29T04:31:40.986Z,0
2018-12-29T04:32:50.926Z,0
2018-12-29T04:34:00.856Z,0
2018-12-29T04:35:10.293Z,0
2018-12-29T04:36:20.244Z,0
2018-12-29T04:37:30.184Z,0
2018-12-29T04:38:40.163Z,0
2018-12-29T04:39:49.856Z,0
2018-12-29T04:40:59.791Z,0
2018-12-29T04:42:09.479Z,0
2018-12-29T04:43:19.419Z,0
2018-12-29T04:44:29.086Z,0
2018-12-29T04:45:39.020Z,0
2018-12-29T04:46:48.550Z,0
2018-12-29T04:47:58.493Z,0
2018-12-29T04:49:08.418Z,0
2018-12-29T04:50:18.381Z,0
2018-12-29T04:51:28.318Z,0
2018-12-29T04:52:38.006Z,0
2018-12-29T04:53:47.688Z,0
2018-12-29T04:54:57.620Z,0
2018-12-29T04:56:07.568Z,0
2018-12-29T04:57:17.496Z,0
2018-12-29T04:58:26.698Z,0
2018-12-29T04:59:36.384Z,0
2018-12-29T05:00:46.318Z,0
2018-12-29T05:01:55.752Z,0
2018-12-29T05:03:05.694Z,0
2018-12-29T05:04:15.645Z,0
2018-12-29T05:05:25.586Z,0
2018-12-29T05:06:35.521Z,0
2018-12-29T05:07:45.458Z,0
2018-12-29T05:08:55.142Z,0
2018-12-29T05:10:05.093Z,0
2018-12-29T05:11:15.024Z,0
2018-12-29T05:12:24.460Z,0
2018-12-29T05:13:34.164Z,0
2018-12-29T05:14:43.858Z,0
2018-12-29T05:15:53.533Z,0
2018-12-29T05:17:03.539Z,0
2018-12-29T05:18:13.222Z,0
2018-12-29T05:19:22.915Z,0
2018-12-29T05:20:32.589Z,0
2018-12-29T05:21:42.525Z,0
2018-12-29T05:22:52.228Z,0
2018-12-29T05:24:02.225Z,0
2018-12-29T05:25:11.916Z,0
2018-12-29T05:26:21.845Z,0
2018-12-29T05:27:31.978Z,0
2018-12-29T05:28:41.885Z,0
2018-12-29T05:29:51.817Z,0
2018-12-29T05:31:01.766Z,0
2018-12-29T05:32:11.762Z,0
2018-12-29T05:33:21.692Z,0
2018-12-29T05:34:31.388Z,0
2018-12-29T05:35:41.084Z,0
2018-12-29T05:36:50.770Z,0
2018-12-29T05:38:00.462Z,0
2018-12-29T05:39:10.394Z,0
2018-12-29T05:40:19.821Z,0
2018-12-29T05:41:29.770Z,0
2018-12-29T05:42:39.465Z,0
2018-12-29T05:43:49.153Z,0
2018-12-29T05:44:58.842Z,0
2018-12-29T05:46:08.786Z,0
2018-12-29T05:47:18.481Z,0
2018-12-29T05:48:28.453Z,0
2018-12-29T05:49:38.396Z,0
2018-12-29T05:50:48.344Z,0
2018-12-29T05:51:58.031Z,0
2018-12-29T05:53:07.974Z,0
2018-12-29T05:54:17.910Z,0
2018-12-29T05:55:27.352Z,0
2018-12-29T05:56:37.042Z,0
2018-12-29T05:57:46.731Z,0
2018-12-29T05:58:56.422Z,0
2018-12-29T06:00:05.864Z,0
2018-12-29T06:01:15.053Z,0
2018-12-29T06:02:24.745Z,0
2018-12-29T06:03:34.198Z,0
2018-12-29T06:04:43.908Z,0
2018-12-29T06:05:53.845Z,0
2018-12-29T06:07:03.839Z,0
2018-12-29T06:08:13.879Z,0
2018-12-29T06:09:23.817Z,0
2018-12-29T06:10:33.304Z,0
2018-12-29T06:11:43.257Z,0
2018-12-29T06:12:54.904Z,0
2018-12-29T06:14:04.833Z,0
2018-12-29T06:15:14.531Z,0
2018-12-29T06:16:30.160Z,0
2018-12-29T06:17:39.853Z,0
2018-12-29T06:18:49.275Z,0
2018-12-29T06:19:58.725Z,0
2018-12-29T06:21:08.667Z,0
2018-12-29T06:22:18.361Z,0
2018-12-29T06:23:28.282Z,0
2018-12-29T06:24:38.023Z,0
2018-12-29T06:25:47.960Z,0
2018-12-29T06:26:57.639Z,0
2018-12-29T06:28:07.325Z,0
2018-12-29T06:29:16.751Z,0
2018-12-29T06:30:26.752Z,0
2018-12-29T06:31:36.196Z,0
2018-12-29T06:32:46.139Z,0
2018-12-29T06:33:55.822Z,0
2018-12-29T06:35:05.595Z,0
2018-12-29T06:36:15.532Z,0
2018-12-29T06:37:25.487Z,0
2018-12-29T06:38:35.444Z,0
2018-12-29T06:39:45.377Z,0
2018-12-29T06:40:55.313Z,0
2018-12-29T06:42:05.263Z,0
2018-12-29T06:43:14.957Z,0
2018-12-29T06:44:24.903Z,0
2018-12-29T06:45:34.844Z,0
2018-12-29T06:46:44.681Z,0
2018-12-29T06:47:54.375Z,0
2018-12-29T06:49:04.312Z,0
2018-12-29T06:50:13.748Z,0
2018-12-29T06:51:23.689Z,0
2018-12-29T06:52:33.382Z,0
2018-12-29T06:53:43.324Z,0
2018-12-29T06:54:53.265Z,0
2018-12-29T06:56:03.190Z,0
2018-12-29T06:57:12.885Z,0
2018-12-29T06:58:22.562Z,0
2018-12-29T06:59:32.251Z,0
2018-12-29T07:00:42.184Z,0
2018-12-29T07:01:52.119Z,0
2018-12-29T07:03:02.053Z,0
2018-12-29T07:04:12.013Z,0
2018-12-29T07:05:21.948Z,0
2018-12-29T07:06:31.626Z,0
2018-12-29T07:07:41.318Z,0
2018-12-29T07:08:51.254Z,0
2018-12-29T07:10:01.432Z,0
2018-12-29T07:11:11.370Z,0
2018-12-29T07:12:21.059Z,0
2018-12-29T07:13:30.737Z,0
2018-12-29T07:14:40.672Z,0
2018-12-29T07:15:50.623Z,0
2018-12-29T07:17:00.551Z,0
2018-12-29T07:18:10.496Z,0
2018-12-29T07:19:20.437Z,0
2018-12-29T07:20:30.387Z,0
2018-12-29T07:21:40.077Z,0
2018-12-29T07:22:50.016Z,0
2018-12-29T07:23:59.961Z,0
2018-12-29T07:25:09.703Z,5
2018-12-29T07:26:19.390Z,5
2018-12-29T07:27:28.823Z,5
2018-12-29T07:28:38.837Z,5
2018-12-29T07:29:48.773Z,5
2018-12-29T07:30:58.449Z,5
2018-12-29T07:32:08.127Z,5
2018-12-29T07:33:17.839Z,5
2018-12-29T07:34:27.807Z,5
2018-12-29T07:35:37.563Z,10
2018-12-29T07:36:46.986Z,10
2018-12-29T07:37:56.686Z,10
2018-12-29T07:39:06.613Z,10
2018-12-29T07:40:16.546Z,10
2018-12-29T07:41:26.246Z,10
2018-12-29T07:42:35.938Z,5
2018-12-29T07:43:45.893Z,10
2018-12-29T07:44:55.826Z,10
2018-12-29T07:46:05.770Z,10
2018-12-29T07:47:15.461Z,10
2018-12-29T07:48:25.151Z,10
2018-12-29T07:49:35.097Z,10
2018-12-29T07:50:45.051Z,10
2018-12-29T07:51:54.728Z,5
2018-12-29T07:53:04.416Z,10
2018-12-29T07:54:14.102Z,10
2018-12-29T07:55:23.787Z,10
2018-12-29T07:56:33.727Z,10
2018-12-29T07:57:43.666Z,10
2018-12-29T07:58:53.350Z,10
2018-12-29T08:00:03.849Z,15
2018-12-29T08:01:13.885Z,10
2018-12-29T08:02:23.829Z,15
2018-12-29T08:03:33.798Z,15
2018-12-29T08:04:43.742Z,15
2018-12-29T08:05:53.692Z,15
2018-12-29T08:07:03.638Z,15
2018-12-29T08:08:13.083Z,20
2018-12-29T08:09:23.027Z,20
2018-12-29T08:10:32.972Z,20
2018-12-29T08:11:42.900Z,15
2018-12-29T08:12:52.848Z,15
2018-12-29T08:14:02.810Z,15
2018-12-29T08:15:12.769Z,20
2018-12-29T08:16:22.718Z,20
2018-12-29T08:17:32.423Z,15
2018-12-29T08:18:41.866Z,15
2018-12-29T08:19:51.554Z,20
2018-12-29T08:21:01.245Z,25
2018-12-29T08:22:10.934Z,30
2018-12-29T08:23:20.614Z,30
2018-12-29T08:24:30.562Z,25
2018-12-29T08:25:40.254Z,30
2018-12-29T08:26:49.945Z,35
2018-12-29T08:27:59.887Z,40
2018-12-29T08:29:09.072Z,45
2018-12-29T08:30:18.536Z,50
2018-12-29T08:31:28.480Z,55
2018-12-29T08:32:38.167Z,65
2018-12-29T08:33:47.932Z,65
2018-12-29T08:34:57.870Z,70
2018-12-29T08:36:07.816Z,75
2018-12-29T08:37:17.323Z,85
2018-12-29T08:38:27.274Z,70
2018-12-29T08:39:37.218Z,70
2018-12-29T08:40:46.921Z,70
2018-12-29T08:41:56.866Z,45
2018-12-29T08:43:06.815Z,35
2018-12-29T08:44:16.766Z,35
2018-12-29T08:45:26.206Z,40
2018-12-29T08:46:35.895Z,45
2018-12-29T08:47:45.835Z,50
2018-12-29T08:48:55.532Z,55
2018-12-29T08:50:12.711Z,50
2018-12-29T08:51:22.903Z,45
2018-12-29T08:52:32.613Z,35
2018-12-29T08:53:42.548Z,35
2018-12-29T08:54:52.484Z,35
2018-12-29T08:56:02.429Z,40
2018-12-29T08:57:12.113Z,45
2018-12-29T08:58:22.054Z,50
2018-12-29T08:59:31.997Z,60
2018-12-29T09:00:41.942Z,55
2018-12-29T09:01:51.891Z,60
2018-12-29T09:03:01.843Z,60
2018-12-29T09:04:11.784Z,65
2018-12-29T09:05:21.484Z,60
2018-12-29T09:06:31.425Z,50
2018-12-29T09:07:41.366Z,50
2018-12-29T09:08:51.804Z,45
2018-12-29T09:10:01.499Z,50
2018-12-29T09:11:11.477Z,50
2018-12-29T09:12:21.440Z,45
2018-12-29T09:13:31.381Z,45
2018-12-29T09:14:40.835Z,50
2018-12-29T09:15:50.772Z,50
2018-12-29T09:17:00.706Z,55
2018-12-29T09:18:10.644Z,60
2018-12-29T09:19:26.961Z,65
2018-12-29T09:20:37.211Z,65
2018-12-29T09:21:47.166Z,60
2018-12-29T09:22:57.121Z,60
2018-12-29T09:24:06.820Z,65
2018-12-29T09:25:16.508Z,80
2018-12-29T09:26:26.217Z,80
2018-12-29T09:27:35.914Z,80
2018-12-29T09:28:45.864Z,80
2018-12-29T09:29:55.555Z,85
2018-12-29T09:31:05.498Z,100
2018-12-29T09:32:15.428Z,100
2018-12-29T09:33:25.409Z,95
2018-12-29T09:34:35.118Z,105
2018-12-29T09:35:45.062Z,105
2018-12-29T09:36:54.776Z,120
2018-12-29T09:38:04.742Z,105
2018-12-29T09:39:14.678Z,100
2018-12-29T09:40:24.630Z,90
2018-12-29T09:41:34.592Z,95
2018-12-29T09:42:44.531Z,90
2018-12-29T09:43:54.460Z,105
2018-12-29T09:45:04.297Z,105
2018-12-29T09:46:13.746Z,105
2018-12-29T09:47:29.263Z,90
2018-12-29T09:48:39.207Z,75
2018-12-29T09:49:48.910Z,80
2018-12-29T09:50:58.606Z,95
2018-12-29T09:52:08.574Z,95
2018-12-29T09:53:18.292Z,100
2018-12-29T09:54:28.228Z,100
2018-12-29T09:55:37.936Z,105
2018-12-29T09:56:47.871Z,90
2018-12-29T09:57:57.815Z,100
2018-12-29T09:59:07.750Z,95
2018-12-29T10:00:17.194Z,75
2018-12-29T10:01:27.151Z,75
2018-12-29T10:02:36.345Z,70
2018-12-29T10:03:45.798Z,75
2018-12-29T10:04:55.731Z,75
2018-12-29T10:06:05.179Z,85
2018-12-29T10:07:14.868Z,85
2018-12-29T10:08:24.567Z,100
2018-12-29T10:09:34.334Z,95
2018-12-29T10:10:44.283Z,110
2018-12-29T10:11:54.228Z,115
2018-12-29T10:13:03.681Z,110
2018-12-29T10:14:13.381Z,120
2018-12-29T10:15:23.075Z,110
2018-12-29T10:16:32.755Z,115
2018-12-29T10:17:42.428Z,90
2018-12-29T10:18:52.356Z,145
2018-12-29T10:20:02.316Z,155
2018-12-29T10:21:12.267Z,120
2018-12-29T10:22:22.203Z,155
2018-12-29T10:23:32.150Z,205
2018-12-29T10:24:42.092Z,205
2018-12-29T10:25:52.028Z,180
2018-12-29T10:27:01.974Z,135
2018-12-29T10:28:12.751Z,120
2018-12-29T10:29:22.824Z,130
2018-12-29T10:30:32.505Z,115
2018-12-29T10:31:42.450Z,85
2018-12-29T10:32:52.385Z,90
2018-12-29T10:34:02.613Z,115
2018-12-29T10:35:12.296Z,115
2018-12-29T10:36:21.728Z,105
2018-12-29T10:37:31.413Z,105
2018-12-29T10:38:40.862Z,120
2018-12-29T10:39:50.570Z,120
2018-12-29T10:41:00.527Z,130
2018-12-29T10:42:09.970Z,115
2018-12-29T10:43:19.662Z,105
2018-12-29T10:44:29.616Z,120
2018-12-29T10:45:39.044Z,110
2018-12-29T10:46:49.001Z,115
2018-12-29T10:47:58.698Z,105
2018-12-29T10:49:07.975Z,105
2018-12-29T10:50:17.916Z,95
2018-12-29T10:51:27.377Z,80
2018-12-29T10:52:37.066Z,80
2018-12-29T10:53:46.521Z,90
2018-12-29T10:54:56.461Z,110
2018-12-29T10:56:06.152Z,105
2018-12-29T10:57:15.854Z,100
2018-12-29T10:58:25.786Z,90
2018-12-29T10:59:35.486Z,75
2018-12-29T11:00:45.441Z,75
2018-12-29T11:01:55.399Z,75
2018-12-29T11:03:05.345Z,70
2018-12-29T11:04:15.576Z,80
2018-12-29T11:05:25.606Z,90
2018-12-29T11:06:35.380Z,80
2018-12-29T11:07:45.069Z,70
2018-12-29T11:08:55.009Z,75
2018-12-29T11:10:04.749Z,75
2018-12-29T11:11:14.685Z,80
2018-12-29T11:12:24.386Z,75
2018-12-29T11:13:34.333Z,80
2018-12-29T11:14:44.041Z,80
2018-12-29T11:15:53.998Z,70
2018-12-29T11:17:03.697Z,65
2018-12-29T11:18:13.389Z,65
2018-12-29T11:19:23.344Z,75
2018-12-29T11:20:33.288Z,90
2018-12-29T11:21:43.236Z,85
2018-12-29T11:22:53.181Z,85
2018-12-29T11:24:03.121Z,85
2018-12-29T11:25:12.557Z,85
2018-12-29T11:26:22.010Z,80
2018-12-29T11:27:31.949Z,85
2018-12-29T11:28:41.652Z,70
2018-12-29T11:29:51.341Z,70
2018-12-29T11:31:01.282Z,70
2018-12-29T11:32:10.726Z,70
2018-12-29T11:33:20.677Z,70
2018-12-29T11:34:30.385Z,75
2018-12-29T11:35:40.341Z,80
2018-12-29T11:36:50.041Z,85
2018-12-29T11:37:59.993Z,85
2018-12-29T11:39:09.763Z,100
2018-12-29T11:40:19.482Z,95
2018-12-29T11:41:30.985Z,80
2018-12-29T11:42:40.985Z,80
2018-12-29T11:43:50.675Z,90
2018-12-29T11:45:00.360Z,95
2018-12-29T11:46:10.056Z,120
2018-12-29T11:47:19.993Z,165
2018-12-29T11:48:29.471Z,240
2018-12-29T11:49:39.205Z,175
2018-12-29T11:50:48.959Z,165
2018-12-29T11:51:58.673Z,195
2018-12-29T11:53:08.683Z,155
2018-12-29T11:54:18.418Z,130
2018-12-29T11:55:27.919Z,115
2018-12-29T11:56:37.663Z,115
2018-12-29T11:57:48.137Z,130
2018-12-29T11:58:58.744Z,155
2018-12-29T12:00:10.808Z,145
2018-12-29T12:01:22.018Z,145
2018-12-29T12:02:34.049Z,135
2018-12-29T12:03:44.057Z,120
2018-12-29T12:04:53.537Z,125
2018-12-29T12:06:03.022Z,120
2018-12-29T12:07:13.002Z,130
2018-12-29T12:08:22.759Z,115
2018-12-29T12:09:32.848Z,95
2018-12-29T12:10:42.336Z,85
2018-12-29T12:11:52.337Z,85
2018-12-29T12:13:02.079Z,85
2018-12-29T12:14:12.087Z,90
2018-12-29T12:15:22.113Z,95
2018-12-29T12:16:31.878Z,100
2018-12-29T12:17:41.921Z,130
2018-12-29T12:18:51.429Z,160
2018-12-29T12:20:01.195Z,160
2018-12-29T12:21:11.209Z,145
2018-12-29T12:22:21.283Z,140
2018-12-29T12:23:31.100Z,190
2018-12-29T12:24:41.188Z,200
2018-12-29T12:25:51.212Z,140
2018-12-29T12:27:00.976Z,95
2018-12-29T12:28:10.990Z,85
2018-12-29T12:29:21.884Z,85
2018-12-29T12:30:31.419Z,75
2018-12-29T12:31:41.429Z,75
2018-12-29T12:32:51.473Z,70
2018-12-29T12:34:01.968Z,80
2018-12-29T12:35:11.998Z,85
2018-12-29T12:36:21.804Z,85
2018-12-29T12:37:32.885Z,80
2018-12-29T12:38:42.896Z,85
2018-12-29T12:39:52.907Z,95
2018-12-29T12:41:03.186Z,95
2018-12-29T12:42:13.225Z,105
2018-12-29T12:43:24.443Z,105
2018-12-29T12:44:34.702Z,95
2018-12-29T12:45:44.710Z,90
2018-12-29T12:46:54.870Z,80
2018-12-29T12:48:12.412Z,75
2018-12-29T12:49:22.195Z,65
2018-12-29T12:50:31.962Z,60
2018-12-29T12:51:41.832Z,55
2018-12-29T12:52:52.034Z,45
2018-12-29T12:54:02.053Z,35
2018-12-29T12:55:12.062Z,35
2018-12-29T12:56:22.058Z,40
2018-12-29T12:57:33.080Z,35
2018-12-29T12:58:44.807Z,35
2018-12-29T12:59:55.324Z,30
2018-12-29T13:01:06.652Z,35
2018-12-29T13:02:17.056Z,35
2018-12-29T13:03:27.799Z,45
2018-12-29T13:04:37.809Z,50
2018-12-29T13:05:47.975Z,60
2018-12-29T13:06:57.968Z,50
2018-12-29T13:08:08.004Z,45
2018-12-29T13:09:18.001Z,45
2018-12-29T13:10:28.040Z,35
2018-12-29T13:11:37.794Z,30
2018-12-29T13:12:47.873Z,30
2018-12-29T13:13:57.863Z,30
2018-12-29T13:15:07.873Z,35
2018-12-29T13:16:17.889Z,35
2018-12-29T13:17:27.642Z,30
2018-12-29T13:18:37.658Z,30
2018-12-29T13:19:47.666Z,35
2018-12-29T13:20:57.670Z,35
2018-12-29T13:22:07.422Z,40
2018-12-29T13:23:17.198Z,35
2018-12-29T13:24:27.217Z,45
2018-12-29T13:25:36.934Z,60
2018-12-29T13:26:46.664Z,60
2018-12-29T13:27:56.657Z,55
2018-12-29T13:29:06.682Z,55
2018-12-29T13:30:16.662Z,60
2018-12-29T13:31:26.422Z,65
2018-12-29T13:32:36.456Z,60
2018-12-29T13:33:46.735Z,65
2018-12-29T13:34:57.638Z,65
2018-12-29T13:36:08.305Z,70
2018-12-29T13:37:18.092Z,60
2018-12-29T13:38:27.846Z,60
2018-12-29T13:39:37.847Z,70
2018-12-29T13:40:49.479Z,65
2018-12-29T13:41:59.236Z,65
2018-12-29T13:43:08.967Z,55
2018-12-29T13:44:18.978Z,50
2018-12-29T13:45:29.001Z,40
2018-12-29T13:46:39.003Z,40
2018-12-29T13:47:49.002Z,40
2018-12-29T13:48:59.017Z,35
2018-12-29T13:50:08.997Z,35
2018-12-29T13:51:18.751Z,35
2018-12-29T13:52:28.481Z,30
2018-12-29T13:53:38.265Z,30
2018-12-29T13:54:48.022Z,35
2018-12-29T13:55:57.765Z,30
2018-12-29T13:57:07.488Z,30
2018-12-29T13:58:17.487Z,25
2018-12-29T13:59:27.242Z,20
2018-12-29T14:00:37.017Z,20
2018-12-29T14:01:47.011Z,15
2018-12-29T14:02:57.304Z,20
2018-12-29T14:04:07.958Z,20
2018-12-29T14:05:18.593Z,20
2018-12-29T14:06:28.855Z,20
2018-12-29T14:07:38.653Z,20
2018-12-29T14:08:48.396Z,20
2018-12-29T14:09:58.149Z,20
2018-12-29T14:11:08.143Z,20
2018-12-29T14:12:17.387Z,20
2018-12-29T14:13:27.113Z,20
2018-12-29T14:14:37.109Z,15
2018-12-29T14:15:47.106Z,20
2018-12-29T14:16:56.853Z,15
2018-12-29T14:18:06.088Z,15
2018-12-29T14:19:16.115Z,15
2018-12-29T14:20:25.869Z,15
2018-12-29T14:21:35.167Z,15
2018-12-29T14:22:44.936Z,10
2018-12-29T14:23:54.928Z,10
2018-12-29T14:25:04.756Z,10
2018-12-29T14:26:14.259Z,10
2018-12-29T14:27:24.266Z,10
2018-12-29T14:28:34.256Z,10
2018-12-29T14:29:44.269Z,10
2018-12-29T14:30:53.783Z,5
2018-12-29T14:32:03.771Z,5
2018-12-29T14:33:13.755Z,10
2018-12-29T14:34:23.975Z,10
2018-12-29T14:35:34.233Z,10
2018-12-29T14:36:44.925Z,10
2018-12-29T14:37:55.493Z,10
2018-12-29T14:39:05.506Z,10
2018-12-29T14:40:15.521Z,10
2018-12-29T14:41:25.532Z,10
2018-12-29T14:42:35.561Z,5
2018-12-29T14:43:45.318Z,5
2018-12-29T14:44:55.329Z,5
2018-12-29T14:46:05.097Z,5
2018-12-29T14:47:15.109Z,5
2018-12-29T14:48:25.116Z,5
2018-12-29T14:49:34.666Z,5
2018-12-29T14:50:44.651Z,5
2018-12-29T14:51:54.400Z,0
2018-12-29T14:53:04.422Z,0
2018-12-29T14:54:14.435Z,0
2018-12-29T14:55:24.520Z,0
2018-12-29T14:56:34.535Z,0
2018-12-29T14:57:44.529Z,0
2018-12-29T14:58:54.513Z,0
2018-12-29T15:00:04.288Z,0
2018-12-29T15:01:14.325Z,0
2018-12-29T15:02:24.334Z,0
2018-12-29T15:03:34.319Z,0
2018-12-29T15:04:44.319Z,0
2018-12-29T15:05:54.888Z,0
2018-12-29T15:07:05.636Z,0
2018-12-29T15:08:16.633Z,0
2018-12-29T15:09:26.921Z,0
2018-12-29T15:10:36.687Z,0
2018-12-29T15:11:47.046Z,0
2018-12-29T15:12:56.575Z,0
2018-12-29T15:14:06.893Z,0
2018-12-29T15:15:17.290Z,0
2018-12-29T15:16:27.075Z,0
2018-12-29T15:17:37.558Z,0
2018-12-29T15:18:53.791Z,0
2018-12-29T15:20:04.155Z,0
2018-12-29T15:21:13.944Z,0
2018-12-29T15:22:25.210Z,0
2018-12-29T15:23:35.866Z,0
2018-12-29T15:24:45.693Z,0
2018-12-29T15:25:55.237Z,0
2018-12-29T15:27:05.018Z,0
2018-12-29T15:28:16.013Z,0
2018-12-29T15:29:26.404Z,0
2018-12-29T15:30:36.442Z,0
2018-12-29T15:31:45.960Z,0
2018-12-29T15:32:55.466Z,0
2018-12-29T15:34:06.418Z,0
2018-12-29T15:35:16.718Z,0
2018-12-29T15:36:26.797Z,0
2018-12-29T15:37:36.578Z,0
2018-12-29T15:38:46.111Z,0
2018-12-29T15:39:57.339Z,0
2018-12-29T15:41:07.805Z,0
2018-12-29T15:42:17.842Z,0
2018-12-29T15:43:27.849Z,0
2018-12-29T15:44:38.643Z,0
2018-12-29T15:45:48.815Z,0
2018-12-29T15:46:58.873Z,0
2018-12-29T15:48:08.384Z,0
2018-12-29T15:49:18.407Z,0
2018-12-29T15:50:29.497Z,0
2018-12-29T15:51:39.822Z,0
2018-12-29T15:52:49.897Z,0
2018-12-29T15:54:00.387Z,0
2018-12-29T15:55:10.554Z,0
2018-12-29T15:56:20.380Z,0
2018-12-29T15:57:30.575Z,0
2018-12-29T15:58:40.607Z,0
2018-12-29T15:59:50.758Z,0
2018-12-29T16:01:00.554Z,0
2018-12-29T16:02:10.595Z,0
2018-12-29T16:03:20.920Z,0
2018-12-29T16:04:31.372Z,0
2018-12-29T16:05:40.900Z,0
2018-12-29T16:06:50.670Z,0
2018-12-29T16:08:00.452Z,0
2018-12-29T16:09:11.710Z,0
2018-12-29T16:10:21.740Z,0
2018-12-29T16:11:36.398Z,0
2018-12-29T16:12:47.432Z,0
2018-12-29T16:13:56.903Z,0
2018-12-29T16:15:06.980Z,0
2018-12-29T16:16:17.072Z,0
2018-12-29T16:17:28.127Z,0
2018-12-29T16:18:38.533Z,0
2018-12-29T16:19:48.560Z,0
2018-12-29T16:21:03.876Z,0
2018-12-29T16:22:13.746Z,0
2018-12-29T16:23:26.169Z,0
2018-12-29T16:24:36.378Z,0
2018-12-29T16:25:46.765Z,0
2018-12-29T16:26:56.823Z,0
2018-12-29T16:28:08.163Z,0
2018-12-29T16:29:18.181Z,0
2018-12-29T16:30:29.378Z,0
2018-12-29T16:31:41.906Z,0
2018-12-29T16:32:52.316Z,0
2018-12-29T16:34:04.252Z,0
2018-12-29T16:35:14.326Z,0
2018-12-29T16:36:24.363Z,0
2018-12-29T16:37:34.421Z,0
2018-12-29T16:38:45.135Z,0
2018-12-29T16:39:55.155Z,0
2018-12-29T16:41:07.701Z,0
2018-12-29T16:42:17.222Z,0
2018-12-29T16:43:27.274Z,0
2018-12-29T16:44:37.123Z,0
2018-12-29T16:45:48.400Z,0
2018-12-29T16:46:58.202Z,0
2018-12-29T16:48:08.242Z,0
2018-12-29T16:49:18.303Z,0
2018-12-29T16:50:27.844Z,0
2018-12-29T16:51:37.894Z,0
2018-12-29T16:52:49.061Z,0
2018-12-29T16:53:59.065Z,0
2018-12-29T16:55:09.133Z,0